sensor_id;sensor_type;location;lat;lon;timestamp;P1;durP1;ratioP1;P2;durP2;ratioP2
54743;SDS011;40639;53.170;6.728;2023-12-22T00:02:25;21.98;;;4.72;;
54743;SDS011;40639;53.170;6.728;2023-12-22T00:04:53;19.50;;;4.38;;
54743;SDS011;40639;53.170;6.728;2023-12-22T00:07:20;18.42;;;3.72;;
54743;SDS011;40639;53.170;6.728;2023-12-22T00:09:46;19.60;;;3.88;;
54743;SDS011;40639;53.170;6.728;2023-12-22T00:12:12;18.13;;;4.07;;
54743;SDS011;40639;53.170;6.728;2023-12-22T00:14:38;21.02;;;5.45;;
54743;SDS011;40639;53.170;6.728;2023-12-22T00:17:05;15.73;;;3.50;;
54743;SDS011;40639;53.170;6.728;2023-12-22T00:19:31;15.57;;;4.50;;
54743;SDS011;40639;53.170;6.728;2023-12-22T00:21:58;17.73;;;4.93;;
54743;SDS011;40639;53.170;6.728;2023-12-22T00:24:24;13.73;;;2.85;;
54743;SDS011;40639;53.170;6.728;2023-12-22T00:26:50;10.57;;;2.92;;
54743;SDS011;40639;53.170;6.728;2023-12-22T00:29:17;8.38;;;2.03;;
54743;SDS011;40639;53.170;6.728;2023-12-22T00:31:43;10.85;;;2.13;;
54743;SDS011;40639;53.170;6.728;2023-12-22T00:34:09;11.75;;;2.63;;
54743;SDS011;40639;53.170;6.728;2023-12-22T00:36:35;10.48;;;2.88;;
54743;SDS011;40639;53.170;6.728;2023-12-22T00:39:01;10.10;;;2.58;;
54743;SDS011;40639;53.170;6.728;2023-12-22T00:41:28;11.45;;;2.50;;
54743;SDS011;40639;53.170;6.728;2023-12-22T00:43:54;15.77;;;2.97;;
54743;SDS011;40639;53.170;6.728;2023-12-22T00:46:20;13.48;;;2.53;;
54743;SDS011;40639;53.170;6.728;2023-12-22T00:48:46;14.23;;;2.45;;
54743;SDS011;40639;53.170;6.728;2023-12-22T00:51:12;5.90;;;1.48;;
54743;SDS011;40639;53.170;6.728;2023-12-22T00:53:39;4.00;;;1.05;;
54743;SDS011;40639;53.170;6.728;2023-12-22T00:56:05;6.00;;;1.10;;
54743;SDS011;40639;53.170;6.728;2023-12-22T00:58:31;7.82;;;1.42;;
54743;SDS011;40639;53.170;6.728;2023-12-22T01:00:57;8.15;;;1.90;;
54743;SDS011;40639;53.170;6.728;2023-12-22T01:03:23;7.93;;;2.00;;
54743;SDS011;40639;53.170;6.728;2023-12-22T01:05:49;12.05;;;2.20;;
54743;SDS011;40639;53.170;6.728;2023-12-22T01:08:16;5.55;;;1.90;;
54743;SDS011;40639;53.170;6.728;2023-12-22T01:10:42;10.02;;;2.65;;
54743;SDS011;40639;53.170;6.728;2023-12-22T01:13:08;7.90;;;1.83;;
54743;SDS011;40639;53.170;6.728;2023-12-22T01:15:34;12.63;;;2.30;;
54743;SDS011;40639;53.170;6.728;2023-12-22T01:18:00;5.95;;;1.98;;
54743;SDS011;40639;53.170;6.728;2023-12-22T01:20:26;12.80;;;2.33;;
54743;SDS011;40639;53.170;6.728;2023-12-22T01:22:52;14.77;;;2.55;;
54743;SDS011;40639;53.170;6.728;2023-12-22T01:25:18;14.90;;;3.20;;
54743;SDS011;40639;53.170;6.728;2023-12-22T01:27:44;10.27;;;2.28;;
54743;SDS011;40639;53.170;6.728;2023-12-22T01:30:12;11.65;;;2.75;;
54743;SDS011;40639;53.170;6.728;2023-12-22T01:32:38;17.58;;;3.10;;
54743;SDS011;40639;53.170;6.728;2023-12-22T01:35:05;14.00;;;3.45;;
54743;SDS011;40639;53.170;6.728;2023-12-22T01:37:35;11.35;;;2.83;;
54743;SDS011;40639;53.170;6.728;2023-12-22T01:40:02;18.10;;;3.35;;
54743;SDS011;40639;53.170;6.728;2023-12-22T01:42:28;9.75;;;3.03;;
54743;SDS011;40639;53.170;6.728;2023-12-22T01:44:54;17.88;;;4.47;;
54743;SDS011;40639;53.170;6.728;2023-12-22T01:47:20;17.33;;;3.85;;
54743;SDS011;40639;53.170;6.728;2023-12-22T01:49:47;19.17;;;3.92;;
54743;SDS011;40639;53.170;6.728;2023-12-22T01:52:13;24.15;;;5.18;;
54743;SDS011;40639;53.170;6.728;2023-12-22T01:54:40;14.77;;;4.28;;
54743;SDS011;40639;53.170;6.728;2023-12-22T01:57:06;16.08;;;3.80;;
54743;SDS011;40639;53.170;6.728;2023-12-22T01:59:32;9.93;;;1.95;;
54743;SDS011;40639;53.170;6.728;2023-12-22T02:02:02;9.80;;;2.67;;
54743;SDS011;40639;53.170;6.728;2023-12-22T02:04:30;7.53;;;2.10;;
54743;SDS011;40639;53.170;6.728;2023-12-22T02:06:57;9.70;;;2.65;;
54743;SDS011;40639;53.170;6.728;2023-12-22T02:09:24;9.45;;;2.13;;
54743;SDS011;40639;53.170;6.728;2023-12-22T02:11:50;16.15;;;2.60;;
54743;SDS011;40639;53.170;6.728;2023-12-22T02:14:16;13.32;;;3.03;;
54743;SDS011;40639;53.170;6.728;2023-12-22T02:16:46;10.63;;;2.47;;
54743;SDS011;40639;53.170;6.728;2023-12-22T02:22:01;15.85;;;2.83;;
54743;SDS011;40639;53.170;6.728;2023-12-22T02:24:28;13.00;;;2.90;;
54743;SDS011;40639;53.170;6.728;2023-12-22T02:26:55;15.95;;;3.40;;
54743;SDS011;40639;53.170;6.728;2023-12-22T02:29:25;11.85;;;2.30;;
54743;SDS011;40639;53.170;6.728;2023-12-22T02:31:51;13.02;;;2.60;;
54743;SDS011;40639;53.170;6.728;2023-12-22T02:34:19;12.73;;;2.67;;
54743;SDS011;40639;53.170;6.728;2023-12-22T02:36:45;5.88;;;1.83;;
54743;SDS011;40639;53.170;6.728;2023-12-22T02:39:13;11.50;;;2.15;;
54743;SDS011;40639;53.170;6.728;2023-12-22T02:41:40;7.68;;;2.00;;
54743;SDS011;40639;53.170;6.728;2023-12-22T02:44:06;15.15;;;2.15;;
54743;SDS011;40639;53.170;6.728;2023-12-22T02:46:33;12.50;;;2.65;;
54743;SDS011;40639;53.170;6.728;2023-12-22T02:48:59;9.55;;;2.33;;
54743;SDS011;40639;53.170;6.728;2023-12-22T02:51:26;13.75;;;3.03;;
54743;SDS011;40639;53.170;6.728;2023-12-22T02:53:52;12.23;;;2.90;;
54743;SDS011;40639;53.170;6.728;2023-12-22T02:56:18;14.57;;;3.00;;
54743;SDS011;40639;53.170;6.728;2023-12-22T02:58:44;15.40;;;2.85;;
54743;SDS011;40639;53.170;6.728;2023-12-22T03:01:10;15.73;;;3.30;;
54743;SDS011;40639;53.170;6.728;2023-12-22T03:03:37;16.35;;;2.78;;
54743;SDS011;40639;53.170;6.728;2023-12-22T03:06:03;10.57;;;3.38;;
54743;SDS011;40639;53.170;6.728;2023-12-22T03:08:29;19.13;;;3.08;;
54743;SDS011;40639;53.170;6.728;2023-12-22T03:10:55;12.40;;;2.60;;
54743;SDS011;40639;53.170;6.728;2023-12-22T03:13:21;11.63;;;2.70;;
54743;SDS011;40639;53.170;6.728;2023-12-22T03:15:47;14.57;;;2.67;;
54743;SDS011;40639;53.170;6.728;2023-12-22T03:18:14;7.55;;;1.92;;
54743;SDS011;40639;53.170;6.728;2023-12-22T03:20:40;8.27;;;2.08;;
54743;SDS011;40639;53.170;6.728;2023-12-22T03:23:06;4.63;;;1.35;;
54743;SDS011;40639;53.170;6.728;2023-12-22T03:25:32;8.52;;;1.70;;
54743;SDS011;40639;53.170;6.728;2023-12-22T03:27:58;7.80;;;1.30;;
54743;SDS011;40639;53.170;6.728;2023-12-22T03:30:24;8.15;;;1.60;;
54743;SDS011;40639;53.170;6.728;2023-12-22T03:32:50;9.50;;;1.70;;
54743;SDS011;40639;53.170;6.728;2023-12-22T03:35:16;7.28;;;1.90;;
54743;SDS011;40639;53.170;6.728;2023-12-22T03:37:43;11.00;;;2.10;;
54743;SDS011;40639;53.170;6.728;2023-12-22T03:40:09;11.88;;;2.17;;
54743;SDS011;40639;53.170;6.728;2023-12-22T03:42:35;13.23;;;2.65;;
54743;SDS011;40639;53.170;6.728;2023-12-22T03:45:01;13.75;;;3.08;;
54743;SDS011;40639;53.170;6.728;2023-12-22T03:47:27;11.48;;;2.83;;
54743;SDS011;40639;53.170;6.728;2023-12-22T03:49:53;18.30;;;2.58;;
54743;SDS011;40639;53.170;6.728;2023-12-22T03:52:19;14.85;;;2.63;;
54743;SDS011;40639;53.170;6.728;2023-12-22T03:54:45;8.25;;;2.33;;
54743;SDS011;40639;53.170;6.728;2023-12-22T03:57:12;7.15;;;1.75;;
54743;SDS011;40639;53.170;6.728;2023-12-22T03:59:38;10.55;;;2.35;;
54743;SDS011;40639;53.170;6.728;2023-12-22T04:02:04;8.05;;;2.40;;
54743;SDS011;40639;53.170;6.728;2023-12-22T04:04:30;9.23;;;1.90;;
54743;SDS011;40639;53.170;6.728;2023-12-22T04:06:56;9.73;;;1.77;;
54743;SDS011;40639;53.170;6.728;2023-12-22T04:09:23;8.48;;;1.88;;
54743;SDS011;40639;53.170;6.728;2023-12-22T04:11:49;9.27;;;1.90;;
54743;SDS011;40639;53.170;6.728;2023-12-22T04:14:15;12.15;;;2.25;;
54743;SDS011;40639;53.170;6.728;2023-12-22T04:16:43;9.75;;;2.15;;
54743;SDS011;40639;53.170;6.728;2023-12-22T04:19:09;10.07;;;1.95;;
54743;SDS011;40639;53.170;6.728;2023-12-22T04:21:35;18.48;;;2.88;;
54743;SDS011;40639;53.170;6.728;2023-12-22T04:24:01;13.68;;;2.78;;
54743;SDS011;40639;53.170;6.728;2023-12-22T04:26:27;14.27;;;3.33;;
54743;SDS011;40639;53.170;6.728;2023-12-22T04:28:53;14.35;;;3.10;;
54743;SDS011;40639;53.170;6.728;2023-12-22T04:31:20;14.98;;;2.80;;
54743;SDS011;40639;53.170;6.728;2023-12-22T04:33:46;13.65;;;2.85;;
54743;SDS011;40639;53.170;6.728;2023-12-22T04:36:12;18.13;;;3.22;;
54743;SDS011;40639;53.170;6.728;2023-12-22T04:38:38;19.83;;;3.53;;
54743;SDS011;40639;53.170;6.728;2023-12-22T04:41:05;14.75;;;3.20;;
54743;SDS011;40639;53.170;6.728;2023-12-22T04:43:32;16.27;;;3.92;;
54743;SDS011;40639;53.170;6.728;2023-12-22T04:45:58;12.80;;;3.13;;
54743;SDS011;40639;53.170;6.728;2023-12-22T04:48:24;9.45;;;2.35;;
54743;SDS011;40639;53.170;6.728;2023-12-22T04:50:50;14.32;;;3.10;;
54743;SDS011;40639;53.170;6.728;2023-12-22T04:53:16;14.80;;;2.63;;
54743;SDS011;40639;53.170;6.728;2023-12-22T04:55:43;13.65;;;2.60;;
54743;SDS011;40639;53.170;6.728;2023-12-22T04:58:09;19.65;;;4.10;;
54743;SDS011;40639;53.170;6.728;2023-12-22T05:00:35;13.82;;;2.47;;
54743;SDS011;40639;53.170;6.728;2023-12-22T05:03:01;11.85;;;2.60;;
54743;SDS011;40639;53.170;6.728;2023-12-22T05:05:28;19.65;;;2.72;;
54743;SDS011;40639;53.170;6.728;2023-12-22T05:07:54;10.88;;;2.38;;
54743;SDS011;40639;53.170;6.728;2023-12-22T05:10:20;12.80;;;2.42;;
54743;SDS011;40639;53.170;6.728;2023-12-22T05:12:46;12.15;;;2.22;;
54743;SDS011;40639;53.170;6.728;2023-12-22T05:15:12;15.13;;;3.38;;
54743;SDS011;40639;53.170;6.728;2023-12-22T05:17:39;13.05;;;3.47;;
54743;SDS011;40639;53.170;6.728;2023-12-22T05:20:06;12.38;;;2.60;;
54743;SDS011;40639;53.170;6.728;2023-12-22T05:22:32;13.10;;;2.70;;
54743;SDS011;40639;53.170;6.728;2023-12-22T05:24:58;15.40;;;2.95;;
54743;SDS011;40639;53.170;6.728;2023-12-22T05:27:26;14.50;;;3.08;;
54743;SDS011;40639;53.170;6.728;2023-12-22T05:29:52;12.82;;;2.90;;
54743;SDS011;40639;53.170;6.728;2023-12-22T05:32:18;11.23;;;3.22;;
54743;SDS011;40639;53.170;6.728;2023-12-22T05:34:44;12.50;;;3.08;;
54743;SDS011;40639;53.170;6.728;2023-12-22T05:37:10;17.67;;;3.03;;
54743;SDS011;40639;53.170;6.728;2023-12-22T05:39:36;13.23;;;2.67;;
54743;SDS011;40639;53.170;6.728;2023-12-22T05:42:03;17.30;;;3.65;;
54743;SDS011;40639;53.170;6.728;2023-12-22T05:44:29;12.77;;;2.80;;
54743;SDS011;40639;53.170;6.728;2023-12-22T05:46:58;14.40;;;2.88;;
54743;SDS011;40639;53.170;6.728;2023-12-22T05:49:24;14.73;;;3.13;;
54743;SDS011;40639;53.170;6.728;2023-12-22T05:51:51;13.75;;;3.08;;
54743;SDS011;40639;53.170;6.728;2023-12-22T05:54:17;17.70;;;3.38;;
54743;SDS011;40639;53.170;6.728;2023-12-22T05:56:44;15.60;;;2.97;;
54743;SDS011;40639;53.170;6.728;2023-12-22T05:59:10;14.45;;;2.85;;
54743;SDS011;40639;53.170;6.728;2023-12-22T06:01:37;13.52;;;3.42;;
54743;SDS011;40639;53.170;6.728;2023-12-22T06:04:03;14.93;;;3.42;;
54743;SDS011;40639;53.170;6.728;2023-12-22T06:06:29;18.70;;;3.83;;
54743;SDS011;40639;53.170;6.728;2023-12-22T06:08:55;12.65;;;2.78;;
54743;SDS011;40639;53.170;6.728;2023-12-22T06:11:22;13.90;;;2.97;;
54743;SDS011;40639;53.170;6.728;2023-12-22T06:13:48;14.15;;;2.83;;
54743;SDS011;40639;53.170;6.728;2023-12-22T06:16:14;16.58;;;3.05;;
54743;SDS011;40639;53.170;6.728;2023-12-22T06:18:41;15.88;;;3.05;;
54743;SDS011;40639;53.170;6.728;2023-12-22T06:21:08;15.57;;;2.83;;
54743;SDS011;40639;53.170;6.728;2023-12-22T06:23:34;11.82;;;2.90;;
54743;SDS011;40639;53.170;6.728;2023-12-22T06:26:01;21.17;;;3.95;;
54743;SDS011;40639;53.170;6.728;2023-12-22T06:28:27;13.85;;;2.63;;
54743;SDS011;40639;53.170;6.728;2023-12-22T06:30:54;9.95;;;3.30;;
54743;SDS011;40639;53.170;6.728;2023-12-22T06:33:20;16.55;;;4.15;;
54743;SDS011;40639;53.170;6.728;2023-12-22T06:35:46;14.13;;;2.60;;
54743;SDS011;40639;53.170;6.728;2023-12-22T06:38:12;21.42;;;4.30;;
54743;SDS011;40639;53.170;6.728;2023-12-22T06:40:38;15.77;;;3.42;;
54743;SDS011;40639;53.170;6.728;2023-12-22T06:43:04;18.83;;;3.65;;
54743;SDS011;40639;53.170;6.728;2023-12-22T06:45:30;14.15;;;2.75;;
54743;SDS011;40639;53.170;6.728;2023-12-22T06:47:56;15.05;;;4.80;;
54743;SDS011;40639;53.170;6.728;2023-12-22T06:50:23;7.63;;;1.52;;
54743;SDS011;40639;53.170;6.728;2023-12-22T06:52:49;5.13;;;1.73;;
54743;SDS011;40639;53.170;6.728;2023-12-22T06:55:16;5.88;;;2.17;;
54743;SDS011;40639;53.170;6.728;2023-12-22T06:57:42;10.48;;;2.00;;
54743;SDS011;40639;53.170;6.728;2023-12-22T07:00:08;8.68;;;2.30;;
54743;SDS011;40639;53.170;6.728;2023-12-22T07:02:35;11.00;;;2.03;;
54743;SDS011;40639;53.170;6.728;2023-12-22T07:07:33;8.25;;;2.45;;
54743;SDS011;40639;53.170;6.728;2023-12-22T07:09:59;13.07;;;2.50;;
54743;SDS011;40639;53.170;6.728;2023-12-22T07:12:25;8.57;;;2.30;;
54743;SDS011;40639;53.170;6.728;2023-12-22T07:14:51;12.43;;;2.42;;
54743;SDS011;40639;53.170;6.728;2023-12-22T07:17:18;11.27;;;3.05;;
54743;SDS011;40639;53.170;6.728;2023-12-22T07:19:44;14.05;;;2.40;;
54743;SDS011;40639;53.170;6.728;2023-12-22T07:22:10;12.75;;;2.88;;
54743;SDS011;40639;53.170;6.728;2023-12-22T07:24:36;16.48;;;2.70;;
54743;SDS011;40639;53.170;6.728;2023-12-22T07:27:02;12.38;;;2.35;;
54743;SDS011;40639;53.170;6.728;2023-12-22T07:29:29;13.05;;;2.70;;
54743;SDS011;40639;53.170;6.728;2023-12-22T07:31:58;18.45;;;4.47;;
54743;SDS011;40639;53.170;6.728;2023-12-22T07:34:24;9.82;;;2.45;;
54743;SDS011;40639;53.170;6.728;2023-12-22T07:36:50;13.20;;;2.88;;
54743;SDS011;40639;53.170;6.728;2023-12-22T07:39:18;11.25;;;2.58;;
54743;SDS011;40639;53.170;6.728;2023-12-22T07:41:44;14.90;;;3.35;;
54743;SDS011;40639;53.170;6.728;2023-12-22T07:44:11;10.60;;;2.65;;
54743;SDS011;40639;53.170;6.728;2023-12-22T07:46:38;10.80;;;3.22;;
54743;SDS011;40639;53.170;6.728;2023-12-22T07:49:04;10.02;;;3.00;;
54743;SDS011;40639;53.170;6.728;2023-12-22T07:51:30;13.27;;;3.08;;
54743;SDS011;40639;53.170;6.728;2023-12-22T07:53:56;14.57;;;3.40;;
54743;SDS011;40639;53.170;6.728;2023-12-22T07:56:22;14.50;;;3.13;;
54743;SDS011;40639;53.170;6.728;2023-12-22T07:58:48;16.27;;;3.05;;
54743;SDS011;40639;53.170;6.728;2023-12-22T08:01:14;17.60;;;3.20;;
54743;SDS011;40639;53.170;6.728;2023-12-22T08:03:41;15.27;;;3.30;;
54743;SDS011;40639;53.170;6.728;2023-12-22T08:06:07;17.42;;;2.97;;
54743;SDS011;40639;53.170;6.728;2023-12-22T08:08:33;13.02;;;3.33;;
54743;SDS011;40639;53.170;6.728;2023-12-22T08:10:59;23.58;;;3.28;;
54743;SDS011;40639;53.170;6.728;2023-12-22T08:13:25;17.52;;;3.47;;
54743;SDS011;40639;53.170;6.728;2023-12-22T08:15:52;10.63;;;2.60;;
54743;SDS011;40639;53.170;6.728;2023-12-22T08:18:18;11.75;;;2.70;;
54743;SDS011;40639;53.170;6.728;2023-12-22T08:20:44;11.38;;;3.35;;
54743;SDS011;40639;53.170;6.728;2023-12-22T08:23:13;19.15;;;2.88;;
54743;SDS011;40639;53.170;6.728;2023-12-22T08:25:39;18.38;;;2.80;;
54743;SDS011;40639;53.170;6.728;2023-12-22T08:28:08;15.77;;;3.90;;
54743;SDS011;40639;53.170;6.728;2023-12-22T08:30:35;13.10;;;3.17;;
54743;SDS011;40639;53.170;6.728;2023-12-22T08:33:01;18.63;;;3.63;;
54743;SDS011;40639;53.170;6.728;2023-12-22T08:35:27;14.95;;;3.08;;
54743;SDS011;40639;53.170;6.728;2023-12-22T08:37:53;12.15;;;2.88;;
54743;SDS011;40639;53.170;6.728;2023-12-22T08:40:19;8.00;;;2.15;;
54743;SDS011;40639;53.170;6.728;2023-12-22T08:42:50;12.23;;;2.78;;
54743;SDS011;40639;53.170;6.728;2023-12-22T08:45:19;14.43;;;2.92;;
54743;SDS011;40639;53.170;6.728;2023-12-22T08:47:46;8.90;;;2.80;;
54743;SDS011;40639;53.170;6.728;2023-12-22T08:50:12;10.35;;;2.63;;
54743;SDS011;40639;53.170;6.728;2023-12-22T08:52:38;12.35;;;2.78;;
54743;SDS011;40639;53.170;6.728;2023-12-22T08:55:05;11.32;;;3.03;;
54743;SDS011;40639;53.170;6.728;2023-12-22T08:57:31;16.00;;;2.63;;
54743;SDS011;40639;53.170;6.728;2023-12-22T08:59:57;9.48;;;2.67;;
54743;SDS011;40639;53.170;6.728;2023-12-22T09:02:23;19.67;;;3.83;;
54743;SDS011;40639;53.170;6.728;2023-12-22T09:04:51;8.30;;;2.30;;
54743;SDS011;40639;53.170;6.728;2023-12-22T09:07:17;12.02;;;3.53;;
54743;SDS011;40639;53.170;6.728;2023-12-22T09:09:44;9.68;;;2.63;;
54743;SDS011;40639;53.170;6.728;2023-12-22T09:12:10;17.27;;;3.58;;
54743;SDS011;40639;53.170;6.728;2023-12-22T09:14:36;12.50;;;2.55;;
54743;SDS011;40639;53.170;6.728;2023-12-22T09:17:02;14.07;;;3.55;;
54743;SDS011;40639;53.170;6.728;2023-12-22T09:19:32;8.43;;;2.15;;
54743;SDS011;40639;53.170;6.728;2023-12-22T09:21:58;10.25;;;2.95;;
54743;SDS011;40639;53.170;6.728;2023-12-22T09:24:25;9.93;;;2.28;;
54743;SDS011;40639;53.170;6.728;2023-12-22T09:26:51;12.13;;;2.42;;
54743;SDS011;40639;53.170;6.728;2023-12-22T09:29:17;7.05;;;2.30;;
54743;SDS011;40639;53.170;6.728;2023-12-22T09:31:43;10.77;;;1.83;;
54743;SDS011;40639;53.170;6.728;2023-12-22T09:34:09;10.65;;;2.13;;
54743;SDS011;40639;53.170;6.728;2023-12-22T09:36:35;9.32;;;2.28;;
54743;SDS011;40639;53.170;6.728;2023-12-22T09:39:02;11.05;;;2.35;;
54743;SDS011;40639;53.170;6.728;2023-12-22T09:41:28;16.65;;;2.60;;
54743;SDS011;40639;53.170;6.728;2023-12-22T09:43:54;12.05;;;2.35;;
54743;SDS011;40639;53.170;6.728;2023-12-22T09:46:21;11.15;;;3.20;;
54743;SDS011;40639;53.170;6.728;2023-12-22T09:48:49;8.65;;;1.85;;
54743;SDS011;40639;53.170;6.728;2023-12-22T09:51:15;13.43;;;3.00;;
54743;SDS011;40639;53.170;6.728;2023-12-22T09:53:43;13.88;;;2.67;;
54743;SDS011;40639;53.170;6.728;2023-12-22T09:56:09;11.43;;;1.98;;
54743;SDS011;40639;53.170;6.728;2023-12-22T09:58:36;10.32;;;1.52;;
54743;SDS011;40639;53.170;6.728;2023-12-22T10:01:03;8.65;;;2.00;;
54743;SDS011;40639;53.170;6.728;2023-12-22T10:03:31;6.90;;;1.65;;
54743;SDS011;40639;53.170;6.728;2023-12-22T10:05:59;6.65;;;1.98;;
54743;SDS011;40639;53.170;6.728;2023-12-22T10:08:26;9.82;;;1.60;;
54743;SDS011;40639;53.170;6.728;2023-12-22T10:10:53;9.77;;;2.20;;
54743;SDS011;40639;53.170;6.728;2023-12-22T10:13:19;11.43;;;2.35;;
54743;SDS011;40639;53.170;6.728;2023-12-22T10:15:46;6.40;;;1.95;;
54743;SDS011;40639;53.170;6.728;2023-12-22T10:18:12;9.85;;;2.45;;
54743;SDS011;40639;53.170;6.728;2023-12-22T10:20:39;8.23;;;1.95;;
54743;SDS011;40639;53.170;6.728;2023-12-22T10:23:06;7.57;;;2.28;;
54743;SDS011;40639;53.170;6.728;2023-12-22T10:25:32;12.70;;;2.40;;
54743;SDS011;40639;53.170;6.728;2023-12-22T10:27:58;9.10;;;1.95;;
54743;SDS011;40639;53.170;6.728;2023-12-22T10:30:24;8.75;;;1.80;;
54743;SDS011;40639;53.170;6.728;2023-12-22T10:32:51;7.85;;;2.08;;
54743;SDS011;40639;53.170;6.728;2023-12-22T10:35:17;9.32;;;1.75;;
54743;SDS011;40639;53.170;6.728;2023-12-22T10:37:45;9.32;;;2.00;;
54743;SDS011;40639;53.170;6.728;2023-12-22T10:40:12;10.98;;;1.75;;
54743;SDS011;40639;53.170;6.728;2023-12-22T10:42:41;7.10;;;1.58;;
54743;SDS011;40639;53.170;6.728;2023-12-22T10:45:08;8.43;;;1.98;;
54743;SDS011;40639;53.170;6.728;2023-12-22T10:47:34;9.68;;;2.00;;
54743;SDS011;40639;53.170;6.728;2023-12-22T10:50:03;9.10;;;1.85;;
54743;SDS011;40639;53.170;6.728;2023-12-22T10:52:29;11.77;;;1.70;;
54743;SDS011;40639;53.170;6.728;2023-12-22T10:54:58;13.90;;;2.53;;
54743;SDS011;40639;53.170;6.728;2023-12-22T10:57:26;9.55;;;2.10;;
54743;SDS011;40639;53.170;6.728;2023-12-22T10:59:56;13.82;;;2.92;;
54743;SDS011;40639;53.170;6.728;2023-12-22T11:02:23;13.27;;;2.30;;
54743;SDS011;40639;53.170;6.728;2023-12-22T11:05:03;10.50;;;2.47;;
54743;SDS011;40639;53.170;6.728;2023-12-22T11:07:34;13.38;;;2.33;;
54743;SDS011;40639;53.170;6.728;2023-12-22T11:10:07;10.75;;;2.60;;
54743;SDS011;40639;53.170;6.728;2023-12-22T11:12:37;11.20;;;2.22;;
54743;SDS011;40639;53.170;6.728;2023-12-22T11:15:05;15.02;;;2.92;;
54743;SDS011;40639;53.170;6.728;2023-12-22T11:17:34;9.52;;;2.00;;
54743;SDS011;40639;53.170;6.728;2023-12-22T11:20:00;15.98;;;2.65;;
54743;SDS011;40639;53.170;6.728;2023-12-22T11:22:27;10.55;;;2.20;;
54743;SDS011;40639;53.170;6.728;2023-12-22T11:24:54;9.98;;;2.28;;
54743;SDS011;40639;53.170;6.728;2023-12-22T11:27:22;11.35;;;2.53;;
54743;SDS011;40639;53.170;6.728;2023-12-22T11:29:49;12.52;;;2.08;;
54743;SDS011;40639;53.170;6.728;2023-12-22T11:32:16;10.93;;;2.00;;
54743;SDS011;40639;53.170;6.728;2023-12-22T11:34:43;10.00;;;1.73;;
54743;SDS011;40639;53.170;6.728;2023-12-22T11:37:15;8.07;;;2.65;;
54743;SDS011;40639;53.170;6.728;2023-12-22T11:39:42;8.30;;;2.17;;
54743;SDS011;40639;53.170;6.728;2023-12-22T11:42:09;8.35;;;2.20;;
54743;SDS011;40639;53.170;6.728;2023-12-22T11:44:36;9.32;;;2.00;;
54743;SDS011;40639;53.170;6.728;2023-12-22T11:47:03;12.23;;;2.72;;
54743;SDS011;40639;53.170;6.728;2023-12-22T11:49:33;7.63;;;1.77;;
54743;SDS011;40639;53.170;6.728;2023-12-22T11:52:08;14.25;;;2.85;;
54743;SDS011;40639;53.170;6.728;2023-12-22T11:54:48;9.75;;;2.30;;
54743;SDS011;40639;53.170;6.728;2023-12-22T11:59:56;10.77;;;2.33;;
54743;SDS011;40639;53.170;6.728;2023-12-22T12:02:22;8.13;;;2.05;;
54743;SDS011;40639;53.170;6.728;2023-12-22T12:04:50;9.85;;;2.25;;
54743;SDS011;40639;53.170;6.728;2023-12-22T12:10:01;11.55;;;2.72;;
54743;SDS011;40639;53.170;6.728;2023-12-22T12:12:27;8.85;;;2.13;;
54743;SDS011;40639;53.170;6.728;2023-12-22T12:14:54;16.17;;;4.53;;
54743;SDS011;40639;53.170;6.728;2023-12-22T12:17:23;12.50;;;2.38;;
54743;SDS011;40639;53.170;6.728;2023-12-22T12:19:51;10.43;;;1.92;;
54743;SDS011;40639;53.170;6.728;2023-12-22T12:22:17;8.27;;;1.80;;
54743;SDS011;40639;53.170;6.728;2023-12-22T12:24:43;14.73;;;2.80;;
54743;SDS011;40639;53.170;6.728;2023-12-22T12:27:10;11.18;;;2.25;;
54743;SDS011;40639;53.170;6.728;2023-12-22T12:29:36;13.90;;;2.30;;
54743;SDS011;40639;53.170;6.728;2023-12-22T12:32:04;9.80;;;2.63;;
54743;SDS011;40639;53.170;6.728;2023-12-22T12:34:31;10.77;;;2.00;;
54743;SDS011;40639;53.170;6.728;2023-12-22T12:36:58;15.90;;;2.80;;
54743;SDS011;40639;53.170;6.728;2023-12-22T12:39:24;9.07;;;2.00;;
54743;SDS011;40639;53.170;6.728;2023-12-22T12:41:53;14.05;;;2.95;;
54743;SDS011;40639;53.170;6.728;2023-12-22T12:44:21;12.75;;;2.67;;
54743;SDS011;40639;53.170;6.728;2023-12-22T12:46:48;15.45;;;5.35;;
54743;SDS011;40639;53.170;6.728;2023-12-22T12:49:14;9.10;;;1.95;;
54743;SDS011;40639;53.170;6.728;2023-12-22T12:51:44;5.63;;;1.65;;
54743;SDS011;40639;53.170;6.728;2023-12-22T12:54:11;9.35;;;2.38;;
54743;SDS011;40639;53.170;6.728;2023-12-22T12:59:11;6.47;;;1.90;;
54743;SDS011;40639;53.170;6.728;2023-12-22T13:01:38;9.40;;;1.60;;
54743;SDS011;40639;53.170;6.728;2023-12-22T13:04:04;7.03;;;1.98;;
54743;SDS011;40639;53.170;6.728;2023-12-22T13:06:30;9.15;;;2.40;;
54743;SDS011;40639;53.170;6.728;2023-12-22T13:08:56;10.68;;;2.10;;
54743;SDS011;40639;53.170;6.728;2023-12-22T13:11:23;6.82;;;2.17;;
54743;SDS011;40639;53.170;6.728;2023-12-22T13:13:50;13.35;;;2.65;;
54743;SDS011;40639;53.170;6.728;2023-12-22T13:16:20;8.73;;;1.90;;
54743;SDS011;40639;53.170;6.728;2023-12-22T13:18:46;7.28;;;2.05;;
54743;SDS011;40639;53.170;6.728;2023-12-22T13:21:13;9.20;;;2.20;;
54743;SDS011;40639;53.170;6.728;2023-12-22T13:23:40;9.63;;;1.83;;
54743;SDS011;40639;53.170;6.728;2023-12-22T13:26:06;12.60;;;2.08;;
54743;SDS011;40639;53.170;6.728;2023-12-22T13:28:32;7.95;;;2.10;;
54743;SDS011;40639;53.170;6.728;2023-12-22T13:30:58;5.78;;;1.30;;
54743;SDS011;40639;53.170;6.728;2023-12-22T13:33:24;7.63;;;1.60;;
54743;SDS011;40639;53.170;6.728;2023-12-22T13:35:56;9.85;;;1.75;;
54743;SDS011;40639;53.170;6.728;2023-12-22T13:38:23;9.75;;;1.80;;
54743;SDS011;40639;53.170;6.728;2023-12-22T13:40:49;4.63;;;1.65;;
54743;SDS011;40639;53.170;6.728;2023-12-22T13:43:16;11.50;;;1.95;;
54743;SDS011;40639;53.170;6.728;2023-12-22T13:45:42;7.88;;;1.40;;
54743;SDS011;40639;53.170;6.728;2023-12-22T13:48:08;5.95;;;1.48;;
54743;SDS011;40639;53.170;6.728;2023-12-22T13:50:34;6.65;;;1.17;;
54743;SDS011;40639;53.170;6.728;2023-12-22T13:53:10;3.20;;;0.80;;
54743;SDS011;40639;53.170;6.728;2023-12-22T13:55:37;6.13;;;1.30;;
54743;SDS011;40639;53.170;6.728;2023-12-22T13:58:04;6.00;;;1.10;;
54743;SDS011;40639;53.170;6.728;2023-12-22T14:00:30;3.85;;;0.70;;
54743;SDS011;40639;53.170;6.728;2023-12-22T14:02:57;4.85;;;1.60;;
54743;SDS011;40639;53.170;6.728;2023-12-22T14:05:23;3.28;;;1.08;;
54743;SDS011;40639;53.170;6.728;2023-12-22T14:07:49;6.72;;;1.42;;
54743;SDS011;40639;53.170;6.728;2023-12-22T14:10:15;5.72;;;1.00;;
54743;SDS011;40639;53.170;6.728;2023-12-22T14:12:42;4.93;;;1.65;;
54743;SDS011;40639;53.170;6.728;2023-12-22T14:15:11;4.00;;;1.00;;
54743;SDS011;40639;53.170;6.728;2023-12-22T14:17:38;3.63;;;0.98;;
54743;SDS011;40639;53.170;6.728;2023-12-22T14:20:07;6.10;;;1.33;;
54743;SDS011;40639;53.170;6.728;2023-12-22T14:22:36;3.60;;;1.17;;
54743;SDS011;40639;53.170;6.728;2023-12-22T14:25:02;8.25;;;1.50;;
54743;SDS011;40639;53.170;6.728;2023-12-22T14:27:29;5.63;;;1.25;;
54743;SDS011;40639;53.170;6.728;2023-12-22T14:29:55;2.85;;;1.33;;
54743;SDS011;40639;53.170;6.728;2023-12-22T14:32:21;7.82;;;1.50;;
54743;SDS011;40639;53.170;6.728;2023-12-22T14:34:47;9.15;;;1.70;;
54743;SDS011;40639;53.170;6.728;2023-12-22T14:37:14;6.65;;;1.40;;
54743;SDS011;40639;53.170;6.728;2023-12-22T14:39:42;10.80;;;2.17;;
54743;SDS011;40639;53.170;6.728;2023-12-22T14:42:09;7.38;;;1.35;;
54743;SDS011;40639;53.170;6.728;2023-12-22T14:44:35;4.97;;;1.25;;
54743;SDS011;40639;53.170;6.728;2023-12-22T14:47:01;6.90;;;1.70;;
54743;SDS011;40639;53.170;6.728;2023-12-22T14:49:27;5.30;;;1.55;;